createdAt,value
2019-02-17T00:01:50.277Z,1.60
2019-02-17T00:04:39.875Z,1.50
2019-02-17T00:07:29.751Z,2.13
2019-02-17T00:10:19.011Z,2.17
2019-02-17T00:13:08.738Z,1.57
2019-02-17T00:15:58.164Z,1.77
2019-02-17T00:18:48.415Z,1.63
2019-02-17T00:21:37.735Z,1.90
2019-02-17T00:24:27.302Z,1.40
2019-02-17T00:27:40.514Z,2.50
2019-02-17T00:30:29.879Z,1.90
2019-02-17T00:33:19.165Z,1.90
2019-02-17T00:36:08.701Z,1.60
2019-02-17T00:38:58.145Z,2.20
2019-02-17T00:41:47.635Z,2.10
2019-02-17T00:44:36.855Z,2.57
2019-02-17T00:47:26.076Z,2.03
2019-02-17T00:50:15.620Z,2.93
2019-02-17T00:53:04.771Z,2.77
2019-02-17T00:55:54.435Z,1.90
2019-02-17T00:58:43.919Z,1.77
2019-02-17T01:01:33.338Z,1.70
2019-02-17T01:04:22.919Z,1.23
2019-02-17T01:07:13.718Z,1.03
2019-02-17T01:10:03.562Z,1.40
2019-02-17T01:12:52.758Z,1.90
2019-02-17T01:15:42.651Z,2.03
2019-02-17T01:18:32.236Z,2.50
2019-02-17T01:21:21.511Z,1.73
2019-02-17T01:24:11.367Z,1.37
2019-02-17T01:27:00.919Z,1.70
2019-02-17T01:29:51.057Z,1.73
2019-02-17T01:32:40.830Z,1.33
2019-02-17T01:35:30.595Z,1.73
2019-02-17T01:38:19.832Z,2.00
2019-02-17T01:41:10.152Z,1.87
2019-02-17T01:44:00.001Z,1.80
2019-02-17T01:46:49.188Z,1.20
2019-02-17T01:49:39.502Z,1.53
2019-02-17T01:52:28.730Z,2.00
2019-02-17T01:55:18.600Z,1.57
2019-02-17T01:58:08.143Z,1.20
2019-02-17T02:00:58.648Z,1.63
2019-02-17T02:03:47.877Z,1.57
2019-02-17T02:06:36.967Z,3.73
2019-02-17T02:09:26.646Z,2.07
2019-02-17T02:12:16.387Z,2.30
2019-02-17T02:15:06.553Z,2.20
2019-02-17T02:17:56.471Z,2.70
2019-02-17T02:20:46.380Z,2.67
2019-02-17T02:23:35.586Z,4.20
2019-02-17T02:26:25.212Z,3.10
2019-02-17T02:29:14.724Z,2.57
2019-02-17T02:32:04.967Z,1.80
2019-02-17T02:34:54.094Z,1.33
2019-02-17T02:37:43.598Z,2.10
2019-02-17T02:40:32.871Z,2.10
2019-02-17T02:43:22.678Z,3.27
2019-02-17T02:46:12.193Z,2.47
2019-02-17T02:49:01.871Z,3.70
2019-02-17T02:51:51.552Z,2.23
2019-02-17T02:54:41.197Z,1.70
2019-02-17T02:57:30.553Z,1.47
2019-02-17T03:00:20.080Z,1.80
2019-02-17T03:03:09.365Z,1.83
2019-02-17T03:06:12.785Z,5.43
2019-02-17T03:09:04.333Z,2.40
2019-02-17T03:11:54.162Z,2.57
2019-02-17T03:14:43.787Z,2.90
2019-02-17T03:17:32.947Z,4.07
2019-02-17T03:20:22.617Z,4.50
2019-02-17T03:23:15.572Z,5.23
2019-02-17T03:26:04.750Z,4.07
2019-02-17T03:28:54.246Z,3.97
2019-02-17T03:31:44.319Z,2.10
2019-02-17T03:34:33.932Z,1.70
2019-02-17T03:37:23.785Z,1.40
2019-02-17T03:40:12.899Z,2.23
2019-02-17T03:43:02.362Z,1.50
2019-02-17T03:45:51.917Z,1.40
2019-02-17T03:48:41.477Z,2.13
2019-02-17T03:51:33.258Z,4.87
2019-02-17T03:54:22.634Z,4.20
2019-02-17T03:57:11.986Z,1.87
2019-02-17T04:00:01.046Z,1.87
2019-02-17T04:02:50.537Z,1.73
2019-02-17T04:05:40.354Z,2.00
2019-02-17T04:08:29.864Z,1.40
2019-02-17T04:11:19.774Z,1.13
2019-02-17T04:14:24.659Z,1.20
2019-02-17T04:17:14.130Z,1.20
2019-02-17T04:20:03.246Z,1.57
2019-02-17T04:22:52.885Z,1.40
2019-02-17T04:25:42.296Z,1.23
2019-02-17T04:28:32.162Z,1.57
2019-02-17T04:31:21.765Z,2.50
2019-02-17T04:34:11.572Z,1.97
2019-02-17T04:37:01.000Z,1.80
2019-02-17T04:39:50.533Z,1.63
2019-02-17T04:42:39.863Z,1.43
2019-02-17T04:45:29.597Z,1.40
2019-02-17T04:48:19.089Z,1.73
2019-02-17T04:51:08.677Z,1.57
2019-02-17T04:53:58.047Z,1.80
2019-02-17T04:56:47.678Z,1.80
2019-02-17T04:59:37.079Z,1.43
2019-02-17T05:02:26.818Z,2.10
2019-02-17T05:05:16.730Z,1.57
2019-02-17T05:08:06.431Z,1.40
2019-02-17T05:10:56.065Z,1.20
2019-02-17T05:13:45.564Z,1.20
2019-02-17T05:16:35.069Z,2.30
2019-02-17T05:19:25.040Z,1.20
2019-02-17T05:22:14.953Z,1.33
2019-02-17T05:25:04.274Z,1.23
2019-02-17T05:27:53.870Z,1.17
2019-02-17T05:30:52.062Z,1.70
2019-02-17T05:33:34.915Z,1.80
2019-02-17T05:36:24.666Z,1.83
2019-02-17T05:39:14.524Z,1.03
2019-02-17T05:45:27.978Z,1.70
2019-02-17T05:48:17.184Z,1.33
2019-02-17T05:51:06.649Z,1.30
2019-02-17T05:53:55.822Z,1.50
2019-02-17T05:56:45.501Z,1.63
2019-02-17T05:59:35.268Z,1.90
2019-02-17T06:02:24.717Z,3.10
2019-02-17T06:05:17.867Z,1.47
2019-02-17T06:08:07.254Z,1.97
2019-02-17T06:10:57.113Z,2.87
2019-02-17T06:13:46.292Z,3.63
2019-02-17T06:16:36.163Z,2.63
2019-02-17T06:19:25.588Z,3.30
2019-02-17T06:22:15.502Z,4.70
2019-02-17T06:25:05.325Z,5.27
2019-02-17T06:27:55.186Z,14.00
2019-02-17T06:30:44.904Z,7.90
2019-02-17T06:33:34.661Z,9.17
2019-02-17T06:36:23.862Z,12.00
2019-02-17T06:39:13.694Z,22.13
2019-02-17T06:42:03.274Z,20.97
2019-02-17T06:44:52.723Z,14.67
2019-02-17T06:47:42.652Z,7.07
2019-02-17T06:50:32.920Z,8.40
2019-02-17T06:53:22.896Z,8.47
2019-02-17T06:56:27.571Z,4.50
2019-02-17T06:59:17.223Z,3.00
2019-02-17T07:02:07.321Z,2.00
2019-02-17T07:05:21.582Z,2.30
2019-02-17T07:08:11.813Z,2.03
2019-02-17T07:11:01.029Z,2.83
2019-02-17T07:13:50.773Z,2.60
2019-02-17T07:16:40.140Z,3.10
2019-02-17T07:19:29.469Z,2.77
2019-02-17T07:22:18.904Z,3.23
2019-02-17T07:25:08.761Z,3.20
2019-02-17T07:27:58.017Z,3.10
2019-02-17T07:30:47.328Z,6.07
2019-02-17T07:33:37.296Z,7.27
2019-02-17T07:36:26.567Z,3.77
2019-02-17T07:39:19.069Z,3.80
2019-02-17T07:42:09.651Z,3.33
2019-02-17T07:44:59.271Z,4.03
2019-02-17T07:47:48.792Z,3.53
2019-02-17T07:50:38.453Z,2.80
2019-02-17T07:53:27.697Z,2.53
2019-02-17T07:56:17.658Z,2.53
2019-02-17T07:59:07.046Z,1.80
2019-02-17T08:01:56.234Z,1.50
2019-02-17T08:04:45.726Z,3.50
2019-02-17T08:07:35.612Z,4.83
2019-02-17T08:10:25.114Z,2.57
2019-02-17T08:13:14.682Z,3.93
2019-02-17T08:16:04.495Z,3.73
2019-02-17T08:18:54.110Z,4.17
2019-02-17T08:21:49.308Z,3.57
2019-02-17T08:24:39.136Z,3.70
2019-02-17T08:27:28.309Z,3.83
2019-02-17T08:30:18.120Z,6.40
2019-02-17T08:33:07.370Z,5.40
2019-02-17T08:35:56.838Z,4.70
2019-02-17T08:38:46.096Z,4.47
2019-02-17T08:41:35.533Z,3.90
2019-02-17T08:44:25.223Z,3.20
2019-02-17T08:47:14.537Z,2.30
2019-02-17T08:50:03.735Z,2.93
2019-02-17T08:52:53.678Z,3.37
2019-02-17T08:55:43.260Z,2.80
2019-02-17T08:58:33.292Z,4.83
2019-02-17T09:01:23.289Z,3.53
2019-02-17T09:04:13.276Z,4.00
2019-02-17T09:07:02.728Z,6.00
2019-02-17T09:09:51.947Z,5.73
2019-02-17T09:12:41.487Z,7.70
2019-02-17T09:15:31.131Z,6.07
2019-02-17T09:18:20.351Z,5.50
2019-02-17T09:21:10.624Z,5.83
2019-02-17T09:24:00.485Z,5.67
2019-02-17T09:26:49.815Z,5.27
2019-02-17T09:29:39.890Z,4.73
2019-02-17T09:32:29.468Z,5.10
2019-02-17T09:35:19.152Z,5.83
2019-02-17T09:38:08.781Z,7.20
2019-02-17T09:40:59.003Z,5.53
2019-02-17T09:43:48.685Z,7.90
2019-02-17T09:46:38.373Z,7.00
2019-02-17T09:49:28.085Z,4.67
2019-02-17T09:52:17.278Z,5.07
2019-02-17T09:55:06.749Z,5.10
2019-02-17T09:57:56.272Z,5.80
2019-02-17T10:00:46.567Z,4.80
2019-02-17T10:03:36.087Z,4.60
2019-02-17T10:06:25.257Z,4.20
2019-02-17T10:09:15.143Z,4.13
2019-02-17T10:12:04.410Z,4.70
2019-02-17T10:14:53.669Z,2.87
2019-02-17T10:17:42.863Z,3.20
2019-02-17T10:20:32.183Z,3.83
2019-02-17T10:23:21.648Z,3.60
2019-02-17T10:26:11.071Z,6.37
2019-02-17T10:29:00.562Z,4.83
2019-02-17T10:31:50.374Z,4.20
2019-02-17T10:34:39.557Z,4.60
2019-02-17T10:37:29.423Z,3.63
2019-02-17T10:40:18.817Z,3.77
2019-02-17T10:43:08.096Z,3.67
2019-02-17T10:45:57.726Z,3.53
2019-02-17T10:48:47.052Z,3.03
2019-02-17T10:51:36.497Z,3.50
2019-02-17T10:54:26.048Z,4.00
2019-02-17T10:57:18.205Z,4.10
2019-02-17T11:00:11.895Z,3.43
2019-02-17T11:03:17.457Z,3.90
2019-02-17T11:06:07.422Z,3.33
2019-02-17T11:08:57.023Z,3.37
2019-02-17T11:11:46.589Z,4.13
2019-02-17T11:14:35.876Z,16.03
2019-02-17T11:17:25.726Z,12.07
2019-02-17T11:20:15.331Z,7.57
2019-02-17T11:23:05.020Z,7.00
2019-02-17T11:25:54.411Z,6.10
2019-02-17T11:28:44.444Z,5.40
2019-02-17T11:31:33.719Z,5.83
2019-02-17T11:34:23.605Z,5.07
2019-02-17T11:37:16.857Z,5.70
2019-02-17T11:40:08.283Z,5.00
2019-02-17T11:42:57.706Z,4.83
2019-02-17T11:45:47.250Z,5.40
2019-02-17T11:48:36.710Z,6.63
2019-02-17T11:51:26.530Z,6.20
2019-02-17T11:54:15.793Z,5.10
2019-02-17T11:57:04.970Z,5.17
2019-02-17T11:59:54.179Z,6.60
2019-02-17T12:02:43.572Z,6.37
2019-02-17T12:05:33.043Z,6.23
2019-02-17T12:08:22.734Z,7.10
2019-02-17T12:11:14.847Z,7.80
2019-02-17T12:14:06.810Z,6.70
2019-02-17T12:16:56.145Z,7.53
2019-02-17T12:19:45.329Z,8.13
2019-02-17T12:22:40.099Z,7.87
2019-02-17T12:25:38.184Z,7.40
2019-02-17T12:29:04.802Z,7.77
2019-02-17T12:31:54.957Z,7.43
2019-02-17T12:34:44.302Z,8.03
2019-02-17T12:37:33.795Z,8.03
2019-02-17T12:40:23.697Z,6.47
2019-02-17T12:43:15.221Z,7.40
2019-02-17T12:46:04.948Z,7.20
2019-02-17T12:48:54.367Z,7.87
2019-02-17T12:51:43.552Z,6.87
2019-02-17T12:54:33.081Z,7.27
2019-02-17T12:57:22.524Z,7.17
2019-02-17T13:00:15.644Z,6.73
2019-02-17T13:03:05.564Z,6.70
2019-02-17T13:05:54.907Z,9.67
2019-02-17T13:08:44.496Z,6.80
2019-02-17T13:11:34.305Z,7.40
2019-02-17T13:14:23.497Z,6.50
2019-02-17T13:17:16.487Z,7.50
2019-02-17T13:20:08.161Z,8.63
2019-02-17T13:22:57.514Z,8.50
2019-02-17T13:25:47.102Z,7.50
2019-02-17T13:28:36.804Z,7.10
2019-02-17T13:31:26.105Z,7.90
2019-02-17T13:34:16.192Z,6.50
2019-02-17T13:37:05.658Z,6.33
2019-02-17T13:39:55.120Z,6.47
2019-02-17T13:42:44.367Z,6.53
2019-02-17T13:45:34.677Z,6.73
2019-02-17T13:48:23.919Z,6.37
2019-02-17T13:51:20.938Z,7.27
2019-02-17T13:54:10.621Z,7.30
2019-02-17T13:56:59.828Z,6.93
2019-02-17T13:59:49.493Z,7.50
2019-02-17T14:02:39.531Z,7.90
2019-02-17T14:05:28.981Z,7.80
2019-02-17T14:08:18.582Z,7.07
2019-02-17T14:11:07.802Z,8.17
2019-02-17T14:13:57.275Z,7.17
2019-02-17T14:16:47.000Z,6.20
2019-02-17T14:19:36.760Z,6.87
2019-02-17T14:22:26.408Z,6.93
2019-02-17T14:25:34.070Z,6.27
2019-02-17T14:28:23.688Z,6.53
2019-02-17T14:31:14.105Z,7.77
2019-02-17T14:34:05.045Z,6.03
2019-02-17T14:36:55.097Z,9.20
2019-02-17T14:39:44.595Z,5.00
2019-02-17T14:42:34.233Z,6.07
2019-02-17T14:45:23.600Z,4.70
2019-02-17T14:48:13.369Z,5.57
2019-02-17T14:51:02.620Z,5.33
2019-02-17T14:53:52.080Z,3.53
2019-02-17T14:56:41.477Z,5.77
2019-02-17T14:59:31.232Z,4.70
2019-02-17T15:02:20.462Z,4.00
2019-02-17T15:05:10.858Z,3.80
2019-02-17T15:08:00.414Z,4.47
2019-02-17T15:10:50.344Z,4.30
2019-02-17T15:13:39.614Z,3.40
2019-02-17T15:16:28.978Z,5.37
2019-02-17T15:19:18.581Z,13.00
2019-02-17T15:22:08.565Z,15.37
2019-02-17T15:24:57.963Z,31.27
2019-02-17T15:27:48.023Z,16.70
2019-02-17T15:30:37.595Z,14.93
2019-02-17T15:33:27.230Z,6.03
2019-02-17T15:36:16.482Z,6.50
2019-02-17T15:39:09.858Z,7.33
2019-02-17T15:41:59.532Z,4.00
2019-02-17T15:44:49.010Z,2.93
2019-02-17T15:47:39.025Z,3.77
2019-02-17T15:50:28.658Z,3.50
2019-02-17T15:53:18.688Z,3.90
2019-02-17T15:56:07.907Z,5.37
2019-02-17T15:58:57.100Z,6.40
2019-02-17T16:01:46.375Z,5.53
2019-02-17T16:04:36.308Z,4.50
2019-02-17T16:07:25.936Z,4.00
2019-02-17T16:10:15.977Z,14.27
2019-02-17T16:13:05.543Z,8.20
2019-02-17T16:15:55.428Z,7.27
2019-02-17T16:18:45.048Z,5.67
2019-02-17T16:21:34.583Z,42.27
2019-02-17T16:24:23.777Z,11.40
2019-02-17T16:27:13.679Z,5.63
2019-02-17T16:30:03.339Z,3.07
2019-02-17T16:32:53.019Z,2.90
2019-02-17T16:35:42.204Z,2.50
2019-02-17T16:38:31.395Z,3.87
2019-02-17T16:41:20.580Z,3.10
2019-02-17T16:44:10.466Z,4.33
2019-02-17T16:46:59.860Z,5.47
2019-02-17T16:49:49.807Z,5.30
2019-02-17T16:52:39.304Z,6.63
2019-02-17T16:55:29.180Z,5.13
2019-02-17T16:58:18.402Z,3.23
2019-02-17T17:01:07.854Z,4.30
2019-02-17T17:03:57.066Z,4.63
2019-02-17T17:06:46.972Z,4.27
2019-02-17T17:09:36.286Z,4.50
2019-02-17T17:12:25.954Z,7.73
2019-02-17T17:15:16.135Z,5.30
2019-02-17T17:18:05.784Z,5.93
2019-02-17T17:20:55.160Z,6.10
2019-02-17T17:23:44.564Z,5.90
2019-02-17T17:26:34.289Z,6.23
2019-02-17T17:29:24.269Z,7.30
2019-02-17T17:32:13.657Z,4.67
2019-02-17T17:35:03.265Z,5.10
2019-02-17T17:37:52.456Z,7.47
2019-02-17T17:40:41.698Z,10.10
2019-02-17T17:43:30.987Z,5.57
2019-02-17T17:46:20.744Z,4.80
2019-02-17T17:49:18.977Z,4.20
2019-02-17T17:52:28.442Z,4.43
2019-02-17T17:55:17.658Z,5.23
2019-02-17T17:58:07.115Z,7.30
2019-02-17T18:00:57.638Z,7.70
2019-02-17T18:03:47.108Z,7.63
2019-02-17T18:06:37.064Z,5.67
2019-02-17T18:09:26.767Z,4.50
2019-02-17T18:12:16.218Z,4.93
2019-02-17T18:15:06.652Z,4.40
2019-02-17T18:17:55.832Z,4.47
2019-02-17T18:20:45.512Z,3.50
2019-02-17T18:23:35.316Z,4.03
2019-02-17T18:26:24.792Z,4.10
2019-02-17T18:29:16.457Z,4.53
2019-02-17T18:32:05.690Z,4.13
2019-02-17T18:34:54.854Z,6.07
2019-02-17T18:37:44.271Z,6.50
2019-02-17T18:40:33.503Z,6.20
2019-02-17T18:43:23.659Z,6.53
2019-02-17T18:46:13.185Z,4.70
2019-02-17T18:49:05.365Z,5.00
2019-02-17T18:51:54.722Z,5.10
2019-02-17T18:54:44.276Z,5.23
2019-02-17T18:57:33.593Z,4.27
2019-02-17T19:00:23.281Z,4.10
2019-02-17T19:03:16.338Z,4.90
2019-02-17T19:06:10.901Z,4.90
2019-02-17T19:09:00.127Z,12.00
2019-02-17T19:11:49.305Z,8.80
2019-02-17T19:14:38.851Z,5.00
2019-02-17T19:17:28.547Z,3.70
2019-02-17T19:20:19.070Z,3.93
2019-02-17T19:23:08.370Z,3.57
2019-02-17T19:25:57.922Z,5.23
2019-02-17T19:28:50.371Z,4.73
2019-02-17T19:31:41.591Z,5.70
2019-02-17T19:34:38.811Z,5.30
2019-02-17T19:37:36.213Z,5.37
2019-02-17T19:40:34.017Z,5.50
2019-02-17T19:43:31.207Z,4.13
2019-02-17T19:46:34.849Z,4.10
2019-02-17T19:49:36.559Z,3.53
2019-02-17T19:52:26.019Z,3.67
2019-02-17T19:58:53.163Z,7.70
2019-02-17T20:01:42.535Z,6.90
2019-02-17T20:04:35.925Z,5.73
2019-02-17T20:07:25.807Z,4.33
2019-02-17T20:10:15.102Z,4.17
2019-02-17T20:13:04.954Z,3.80
2019-02-17T20:15:54.154Z,4.10
2019-02-17T20:18:43.628Z,5.00
2019-02-17T20:21:33.314Z,5.27
2019-02-17T20:24:22.539Z,6.07
2019-02-17T20:27:12.859Z,6.73
2019-02-17T20:30:02.257Z,5.33
2019-02-17T20:32:51.993Z,5.20
2019-02-17T20:35:41.285Z,5.60
2019-02-17T20:38:30.940Z,4.97
2019-02-17T20:41:20.313Z,5.10
2019-02-17T20:44:09.488Z,4.77
2019-02-17T20:46:58.700Z,5.53
2019-02-17T20:49:53.584Z,4.60
2019-02-17T20:52:43.029Z,5.27
2019-02-17T20:55:32.671Z,3.70
2019-02-17T20:58:21.946Z,3.73
2019-02-17T21:01:11.082Z,3.10
2019-02-17T21:04:00.720Z,3.50
2019-02-17T21:06:50.576Z,4.30
2019-02-17T21:10:11.622Z,4.30
2019-02-17T21:13:01.355Z,3.30
2019-02-17T21:15:50.757Z,3.90
2019-02-17T21:18:40.180Z,3.93
2019-02-17T21:21:30.137Z,2.97
2019-02-17T21:24:19.692Z,4.30
2019-02-17T21:27:09.444Z,6.83
2019-02-17T21:29:58.545Z,4.87
2019-02-17T21:32:47.777Z,4.30
2019-02-17T21:35:37.501Z,3.20
2019-02-17T21:38:26.745Z,4.33
2019-02-17T21:41:18.757Z,3.37
2019-02-17T21:44:08.095Z,3.70
2019-02-17T21:46:57.911Z,3.83
2019-02-17T21:49:47.309Z,3.43
2019-02-17T21:52:36.977Z,3.50
2019-02-17T21:55:26.201Z,3.47
2019-02-17T21:58:16.188Z,3.40
2019-02-17T22:01:05.316Z,3.60
2019-02-17T22:03:55.279Z,3.67
2019-02-17T22:06:44.606Z,3.43
2019-02-17T22:09:36.198Z,2.97
2019-02-17T22:12:25.621Z,3.30
2019-02-17T22:15:15.877Z,2.87
2019-02-17T22:18:05.293Z,2.87
2019-02-17T22:20:54.645Z,2.33
2019-02-17T22:23:43.850Z,2.83
2019-02-17T22:26:33.692Z,2.50
2019-02-17T22:29:23.131Z,2.77
2019-02-17T22:32:12.739Z,2.40
2019-02-17T22:35:01.881Z,2.23
2019-02-17T22:37:51.286Z,2.27
2019-02-17T22:40:40.501Z,2.60
2019-02-17T22:43:30.056Z,2.67
2019-02-17T22:46:19.701Z,3.97
2019-02-17T22:49:12.193Z,2.90
2019-02-17T22:52:02.188Z,3.17
2019-02-17T22:54:51.822Z,2.73
2019-02-17T22:57:41.202Z,3.50
2019-02-17T23:00:47.834Z,2.73
2019-02-17T23:03:37.323Z,2.60
2019-02-17T23:06:26.882Z,2.80
2019-02-17T23:09:16.419Z,2.10
2019-02-17T23:12:06.755Z,2.60
2019-02-17T23:14:56.240Z,2.10
2019-02-17T23:17:46.198Z,2.17
2019-02-17T23:20:35.471Z,2.60
2019-02-17T23:23:24.670Z,2.37
2019-02-17T23:26:13.839Z,2.60
2019-02-17T23:29:06.220Z,2.67
2019-02-17T23:31:55.516Z,2.53
2019-02-17T23:34:45.652Z,3.00
2019-02-17T23:37:35.237Z,2.40
2019-02-17T23:40:25.266Z,3.30
2019-02-17T23:43:15.762Z,2.73
2019-02-17T23:46:05.428Z,3.03
2019-02-17T23:48:54.592Z,2.90
2019-02-17T23:51:44.242Z,2.03
2019-02-17T23:54:33.969Z,3.10
2019-02-17T23:57:23.421Z,5.53
